Time;durP1;ratioP1;P1;durP2;ratioP2;P2;SDS_P1;SDS_P2;PMS_P1;PMS_P2;Temp;Humidity;BMP_temperature;BMP_pressure;BME280_temperature;BME280_humidity;BME280_pressure;Samples;Min_cycle;Max_cycle;Signal;HPM_P1;HPM_P2
2023/03/01 00:02:23;;;;;;;16.25;11.77;;;;;;;;;;5028628;28;20041;-67
2023/03/01 00:04:49;;;;;;;17.73;12.02;;;;;;;;;;5031108;28;20052;-66
2023/03/01 00:07:15;;;;;;;17.75;12.18;;;;;;;;;;5015916;28;20495;-65
2023/03/01 00:09:41;;;;;;;17.35;11.07;;;;;;;;;;5031957;28;20108;-65
2023/03/01 00:12:07;;;;;;;15.15;11.10;;;;;;;;;;5037591;28;20037;-66
2023/03/01 00:14:33;;;;;;;18.75;11.32;;;;;;;;;;5029365;28;20666;-66
2023/03/01 00:16:59;;;;;;;16.58;11.10;;;;;;;;;;5029797;28;20504;-66
2023/03/01 00:19:25;;;;;;;15.45;10.80;;;;;;;;;;5024531;28;20033;-66
2023/03/01 00:21:51;;;;;;;16.85;11.55;;;;;;;;;;5012925;28;20037;-65
2023/03/01 00:24:17;;;;;;;18.23;12.07;;;;;;;;;;5015634;28;20060;-65
2023/03/01 00:26:43;;;;;;;19.45;13.52;;;;;;;;;;5031733;28;20469;-65
2023/03/01 00:29:09;;;;;;;20.77;13.45;;;;;;;;;;5016593;28;20113;-66
2023/03/01 00:31:35;;;;;;;18.25;14.15;;;;;;;;;;5034051;28;20136;-66
2023/03/01 00:34:02;;;;;;;21.85;14.73;;;;;;;;;;5012138;28;20057;-66
2023/03/01 00:36:30;;;;;;;24.27;15.20;;;;;;;;;;5028492;28;20044;-65
2023/03/01 00:38:56;;;;;;;18.48;11.75;;;;;;;;;;5013003;28;20128;-66
2023/03/01 00:41:22;;;;;;;17.63;12.35;;;-0.50;99.90;;;;;;5013302;28;20041;-66
2023/03/01 00:43:49;;;;;;;20.60;12.70;;;;;;;;;;5016145;28;20090;-66
2023/03/01 00:46:17;;;;;;;13.02;9.00;;;-0.60;99.90;;;;;;5012538;28;20056;-67
2023/03/01 00:48:43;;;;;;;11.57;7.70;;;;;;;;;;5030018;28;20095;-65
2023/03/01 00:51:11;;;;;;;8.45;6.60;;;;;;;;;;5011569;28;20057;-66
2023/03/01 00:53:37;;;;;;;13.80;9.32;;;;;;;;;;5012045;28;20037;-66
2023/03/01 00:56:04;;;;;;;12.90;8.52;;;;;;;;;;5015306;28;20797;-65
2023/03/01 00:58:30;;;;;;;13.20;9.35;;;;;;;;;;5011736;28;20128;-66
2023/03/01 01:00:56;;;;;;;12.18;8.27;;;;;;;;;;5026013;28;20044;-66
2023/03/01 01:03:24;;;;;;;19.05;9.70;;;;;;;;;;5016109;28;20037;-66
2023/03/01 01:05:50;;;;;;;15.93;11.02;;;;;;;;;;5028388;28;20092;-67
2023/03/01 01:08:16;;;;;;;17.30;10.65;;;;;;;;;;5032480;28;20064;-66
2023/03/01 01:10:44;;;;;;;23.60;12.60;;;;;;;;;;5029716;28;20045;-65
2023/03/01 01:13:10;;;;;;;20.92;14.05;;;;;;;;;;5008213;28;20076;-65
2023/03/01 01:15:36;;;;;;;21.33;15.45;;;;;;;;;;5028559;28;20143;-66
2023/03/01 01:18:02;;;;;;;23.77;15.10;;;;;;;;;;5017185;28;20491;-65
2023/03/01 01:20:28;;;;;;;24.35;15.13;;;;;;;;;;5011259;28;20507;-66
2023/03/01 01:22:54;;;;;;;28.38;16.20;;;;;;;;;;5033936;28;20049;-65
2023/03/01 01:25:20;;;;;;;26.05;15.57;;;;;;;;;;5011366;28;20527;-66
2023/03/01 01:27:46;;;;;;;24.25;14.95;;;;;;;;;;5026410;28;20045;-66
2023/03/01 01:30:12;;;;;;;39.13;17.08;;;-0.50;99.90;;;;;;5007849;28;20129;-65
2023/03/01 01:32:39;;;;;;;137.82;23.67;;;;;;;;;;5011048;28;20041;-65
2023/03/01 01:35:05;;;;;;;157.13;24.00;;;;;;;;;;5027482;28;20041;-66
2023/03/01 01:37:33;;;;;;;118.57;21.45;;;;;;;;;;5029139;28;20038;-65
2023/03/01 01:39:59;;;;;;;33.92;15.63;;;;;;;;;;5025629;28;20043;-65
2023/03/01 01:42:25;;;;;;;147.32;21.48;;;;;;;;;;5010712;28;20073;-66
2023/03/01 01:45:10;;;;;;;267.98;27.73;;;;;;;;;;5011821;28;20048;-66
2023/03/01 01:47:36;;;;;;;50.67;17.93;;;;;;;;;;5006903;28;20046;-65
2023/03/01 01:50:02;;;;;;;35.80;17.77;;;;;;;;;;5005137;28;20049;-66
2023/03/01 01:52:31;;;;;;;39.33;17.65;;;;;;;;;;5026468;28;20416;-66
2023/03/01 01:55:00;;;;;;;38.65;19.17;;;;;;;;;;5028021;28;20514;-66
2023/03/01 01:57:28;;;;;;;35.90;19.90;;;;;;;;;;5008840;28;20562;-66
2023/03/01 01:59:57;;;;;;;34.53;18.52;;;;;;;;;;5004616;28;20052;-65
2023/03/01 02:02:23;;;;;;;33.13;18.45;;;;;;;;;;5008705;28;20052;-66
2023/03/01 02:04:50;;;;;;;28.85;18.58;;;;;;;;;;5023207;28;20045;-65
2023/03/01 02:07:17;;;;;;;26.55;17.00;;;;;;;;;;5029835;28;20040;-65
2023/03/01 02:09:48;;;;;;;30.23;18.77;;;;;;;;;;5013606;28;20483;-65
2023/03/01 02:12:17;;;;;;;31.02;17.55;;;;;;;;;;5029881;28;20038;-65
2023/03/01 02:14:43;;;;;;;31.63;18.77;;;;;;;;;;5028553;28;20487;-65
2023/03/01 02:17:10;;;;;;;49.20;18.10;;;;;;;;;;5009757;28;20077;-65
2023/03/01 02:19:47;;;;;;;33.42;17.42;;;;;;;;;;5025542;28;20049;-65
2023/03/01 02:22:20;;;;;;;31.27;17.67;;;;;;;;;;5003242;28;20048;-66
2023/03/01 02:24:58;;;;;;;60.30;18.88;;;;;;;;;;5026816;28;20052;-66
2023/03/01 02:27:26;;;;;;;229.52;25.48;;;;;;;;;;5006073;28;20128;-66
2023/03/01 02:29:52;;;;;;;223.57;24.38;;;;;;;;;;5022937;28;20174;-66
2023/03/01 02:32:24;;;;;;;97.72;20.38;;;;;;;;;;5030120;28;20499;-65
2023/03/01 02:34:51;;;;;;;48.70;19.10;;;;;;;;;;5023805;28;20056;-65
2023/03/01 02:37:24;;;;;;;57.25;20.73;;;;;;;;;;5016432;28;20052;-67
2023/03/01 02:39:52;;;;;;;135.93;22.90;;;;;;;;;;5011582;28;20060;-66
2023/03/01 02:42:21;;;;;;;183.40;22.92;;;;;;;;;;5025346;28;20378;-66
2023/03/01 02:44:49;;;;;;;280.42;30.25;;;;;;;;;;5006516;28;20124;-66
2023/03/01 02:47:15;;;;;;;111.03;20.58;;;;;;;;;;5010230;28;20124;-65
2023/03/01 02:49:41;;;;;;;240.23;26.55;;;;;;;;;;5022551;28;20558;-66
2023/03/01 02:52:19;;;;;;;217.60;23.48;;;;;;;;;;5018043;28;20068;-65
2023/03/01 02:55:02;;;;;;;275.63;21.10;;;;;;;;;;5022504;28;20056;-66
2023/03/01 02:57:31;;;;;;;246.85;20.10;;;-1.30;99.90;;;;;;5020331;28;20048;-67
2023/03/01 02:59:58;;;;;;;220.43;18.98;;;;;;;;;;5004373;28;20037;-65
2023/03/01 03:02:35;;;;;;;189.60;19.15;;;-1.50;99.90;;;;;;5008629;28;20068;-65
2023/03/01 03:05:08;;;;;;;131.70;16.48;;;;;;;;;;5009497;28;20049;-65
2023/03/01 03:07:34;;;;;;;104.40;16.25;;;;;;;;;;5006675;28;20053;-66
2023/03/01 03:10:00;;;;;;;76.63;15.70;;;;;;;;;;5007699;28;20530;-66
2023/03/01 03:12:26;;;;;;;53.92;14.27;;;;;;;;;;5023479;28;20113;-65
2023/03/01 03:14:52;;;;;;;20.05;13.50;;;;;;;;;;5028239;28;20045;-65
2023/03/01 03:17:18;;;;;;;18.50;12.43;;;;;;;;;;5010900;28;20057;-67
2023/03/01 03:19:45;;;;;;;21.95;12.65;;;;;;;;;;5025325;28;20083;-66
2023/03/01 03:22:11;;;;;;;20.15;12.55;;;;;;;;;;5034558;28;20049;-65
2023/03/01 03:24:37;;;;;;;28.65;13.48;;;;;;;;;;5021715;28;20145;-66
2023/03/01 03:27:07;;;;;;;20.17;13.05;;;;;;;;;;5022188;28;20117;-67
2023/03/01 03:29:33;;;;;;;20.38;12.60;;;;;;;;;;5008714;28;20049;-65
2023/03/01 03:31:59;;;;;;;17.38;11.65;;;;;;;;;;5029482;28;20033;-66
2023/03/01 03:34:25;;;;;;;24.15;12.93;;;;;;;;;;5020010;28;20064;-65
2023/03/01 03:36:59;;;;;;;71.43;15.60;;;;;;;;;;5014268;28;20048;-65
2023/03/01 03:39:26;;;;;;;49.42;13.75;;;;;;;;;;5006344;28;20135;-66
2023/03/01 03:41:53;;;;;;;49.05;13.32;;;;;;;;;;5030274;28;20056;-66
2023/03/01 03:44:19;;;;;;;29.25;12.35;;;;;;;;;;5033792;28;20048;-66
2023/03/01 03:46:45;;;;;;;16.42;11.73;;;;;;;;;;5021212;28;20045;-65
2023/03/01 03:49:11;;;;;;;18.10;11.50;;;;;;;;;;5006968;28;20056;-65
2023/03/01 03:51:37;;;;;;;75.38;14.10;;;;;;;;;;5004677;28;20057;-65
2023/03/01 03:54:03;;;;;;;57.80;13.95;;;;;;;;;;5017758;28;20894;-65
2023/03/01 03:56:29;;;;;;;25.17;13.38;;;;;;;;;;5019014;28;20041;-66
2023/03/01 03:58:55;;;;;;;19.90;13.35;;;;;;;;;;5005877;28;20045;-66
2023/03/01 04:01:21;;;;;;;42.30;13.25;;;;;;;;;;5021870;28;20041;-65
2023/03/01 04:03:47;;;;;;;35.60;13.30;;;;;;;;;;5004707;28;20053;-65
2023/03/01 04:06:13;;;;;;;25.60;13.27;;;;;;;;;;5008804;28;20046;-65
2023/03/01 04:08:40;;;;;;;36.40;14.40;;;;;;;;;;5024792;28;20487;-66
2023/03/01 04:13:51;;;;;;;24.98;13.18;;;;;;;;;;5024340;28;20060;-65
2023/03/01 04:16:17;;;;;;;35.90;13.23;;;;;;;;;;5010161;28;20042;-65
2023/03/01 04:18:43;;;;;;;36.08;12.70;;;;;;;;;;4993294;28;20678;-65
2023/03/01 04:21:11;;;;;;;29.77;12.50;;;;;;;;;;5007803;28;20166;-66
2023/03/01 04:23:37;;;;;;;50.35;13.95;;;;;;;;;;5024728;28;20099;-65
2023/03/01 04:26:03;;;;;;;31.10;12.75;;;;;;;;;;5002318;28;20049;-66
2023/03/01 04:28:34;;;;;;;29.48;11.98;;;;;;;;;;5027024;28;20045;-66
2023/03/01 04:31:12;;;;;;;24.73;13.23;;;;;;;;;;5001817;28;20111;-66
2023/03/01 04:33:39;;;;;;;19.17;12.95;;;;;;;;;;5020603;28;20053;-66
2023/03/01 04:36:05;;;;;;;27.35;14.25;;;;;;;;;;5026568;28;20045;-66
2023/03/01 04:38:34;;;;;;;22.92;12.73;;;;;;;;;;5008832;28;20763;-66
2023/03/01 04:41:00;;;;;;;19.70;12.55;;;;;;;;;;5010434;28;20060;-66
2023/03/01 04:43:26;;;;;;;17.73;12.32;;;;;;;;;;5031047;28;20046;-66
2023/03/01 04:45:52;;;;;;;18.67;12.55;;;;;;;;;;5013511;28;20114;-65
2023/03/01 04:48:18;;;;;;;19.00;12.93;;;;;;;;;;5034493;28;20071;-65
2023/03/01 04:50:44;;;;;;;19.40;12.30;;;;;;;;;;5027571;28;20061;-66
2023/03/01 04:53:10;;;;;;;19.05;12.40;;;;;;;;;;5028598;28;20060;-66
2023/03/01 04:55:36;;;;;;;22.52;13.93;;;;;;;;;;5019758;28;20045;-66
2023/03/01 04:58:02;;;;;;;20.38;13.05;;;;;;;;;;4998223;28;20132;-65
2023/03/01 05:00:28;;;;;;;19.27;12.75;;;;;;;;;;5027176;28;20041;-65
2023/03/01 05:02:56;;;;;;;19.65;13.15;;;;;;;;;;5007537;28;20045;-66
2023/03/01 05:05:25;;;;;;;18.42;12.27;;;;;;;;;;5017165;28;20037;-65
2023/03/01 05:07:56;;;;;;;14.15;9.55;;;;;;;;;;5018127;28;20041;-65
2023/03/01 05:10:22;;;;;;;26.02;15.30;;;;;;;;;;5006394;28;20639;-66
2023/03/01 05:12:48;;;;;;;20.15;13.88;;;;;;;;;;5004951;28;20049;-65
2023/03/01 05:15:14;;;;;;;21.05;13.57;;;;;;;;;;5007282;28;20045;-66
2023/03/01 05:17:41;;;;;;;17.08;11.27;;;;;;;;;;5007135;28;20091;-66
2023/03/01 05:20:10;;;;;;;20.60;13.25;;;;;;;;;;5022328;28;20136;-66
2023/03/01 05:22:36;;;;;;;17.85;11.95;;;;;;;;;;5011104;28;20045;-66
2023/03/01 05:25:03;;;;;;;18.65;12.32;;;-2.50;99.90;;;;;;5014037;28;20116;-66
2023/03/01 05:27:29;;;;;;;20.98;13.02;;;;;;;;;;5033145;28;20099;-65
2023/03/01 05:29:56;;;;;;;18.80;12.02;;;;;;;;;;5022795;28;20041;-65
2023/03/01 05:32:22;;;;;;;20.60;12.40;;;;;;;;;;5022544;28;20045;-65
2023/03/01 05:34:48;;;;;;;17.13;11.60;;;;;;;;;;5023470;28;20044;-66
2023/03/01 05:37:14;;;;;;;18.45;12.13;;;;;;;;;;5002365;28;20049;-65
2023/03/01 05:39:41;;;;;;;19.83;12.68;;;;;;;;;;5012543;28;20324;-65
2023/03/01 05:42:10;;;;;;;19.23;13.13;;;;;;;;;;5012278;28;20049;-66
2023/03/01 05:44:36;;;;;;;18.35;12.63;;;;;;;;;;5003755;28;20085;-66
2023/03/01 05:47:02;;;;;;;19.70;12.98;;;;;;;;;;5025906;28;20124;-66
2023/03/01 05:49:28;;;;;;;20.13;13.13;;;;;;;;;;5002196;28;20128;-65
2023/03/01 05:51:54;;;;;;;21.65;13.63;;;;;;;;;;5000880;28;20069;-66
2023/03/01 05:54:21;;;;;;;21.40;13.50;;;;;;;;;;4999370;28;20475;-65
2023/03/01 05:56:47;;;;;;;23.02;13.75;;;;;;;;;;5004772;28;20172;-65
2023/03/01 05:59:14;;;;;;;22.65;12.70;;;;;;;;;;5004235;28;20127;-65
2023/03/01 06:01:40;;;;;;;21.30;13.80;;;;;;;;;;5024590;28;20887;-66
2023/03/01 06:04:06;;;;;;;19.83;12.65;;;;;;;;;;5008218;28;20049;-66
2023/03/01 06:06:39;;;;;;;19.45;12.55;;;;;;;;;;5025978;28;20238;-65
2023/03/01 06:09:07;;;;;;;22.00;13.20;;;;;;;;;;5009712;28;20052;-65
2023/03/01 06:11:34;;;;;;;19.10;11.90;;;;;;;;;;5029436;28;20061;-66
2023/03/01 06:14:00;;;;;;;17.70;12.02;;;;;;;;;;5008887;28;20116;-65
2023/03/01 06:16:26;;;;;;;17.95;11.82;;;;;;;;;;5001121;28;20679;-65
2023/03/01 06:18:52;;;;;;;18.75;12.45;;;;;;;;;;5021304;28;20052;-66
2023/03/01 06:21:18;;;;;;;16.48;11.38;;;;;;;;;;5024023;28;20486;-66
2023/03/01 06:23:44;;;;;;;19.75;12.60;;;;;;;;;;5024403;28;20038;-66
2023/03/01 06:26:10;;;;;;;19.20;12.57;;;;;;;;;;5009471;28;20049;-65
2023/03/01 06:28:36;;;;;;;15.80;11.45;;;;;;;;;;5011499;28;20045;-65
2023/03/01 06:31:02;;;;;;;19.38;12.95;;;;;;;;;;5027492;28;20033;-65
2023/03/01 06:33:28;;;;;;;20.33;12.57;;;;;;;;;;5036235;28;20137;-65
2023/03/01 06:35:57;;;;;;;20.35;12.00;;;;;;;;;;5022381;28;20119;-65
2023/03/01 06:38:23;;;;;;;18.92;11.88;;;;;;;;;;5029545;28;20093;-65
2023/03/01 06:40:56;;;;;;;21.05;12.98;;;;;;;;;;5441277;22;20016;-65
2023/03/01 06:43:23;;;;;;;19.17;12.48;;;;;;;;;;5054717;28;20490;-67
2023/03/01 06:45:49;;;;;;;22.92;15.70;;;;;;;;;;5054166;28;20040;-65
2023/03/01 06:48:15;;;;;;;20.15;13.07;;;;;;;;;;5054468;28;20120;-65
2023/03/01 06:50:41;;;;;;;19.88;12.73;;;;;;;;;;5083560;28;20097;-66
2023/03/01 06:53:07;;;;;;;18.58;12.55;;;;;;;;;;5070735;28;20040;-66
2023/03/01 06:55:33;;;;;;;24.52;14.80;;;;;;;;;;5074644;28;20409;-66
2023/03/01 06:58:00;;;;;;;27.38;16.38;;;;;;;;;;5076451;28;20032;-65
2023/03/01 07:00:26;;;;;;;22.60;14.38;;;;;;;;;;5084080;28;20051;-66
2023/03/01 07:02:52;;;;;;;20.35;13.52;;;;;;;;;;5084285;28;20293;-66
2023/03/01 07:05:18;;;;;;;20.38;13.48;;;;;;;;;;5080464;28;20134;-66
2023/03/01 07:07:44;;;;;;;21.60;14.50;;;;;;;;;;5082495;28;20033;-66
2023/03/01 07:10:11;;;;;;;24.00;15.30;;;;;;;;;;5069245;28;20074;-66
2023/03/01 07:12:37;;;;;;;19.95;13.60;;;;;;;;;;5077683;28;20051;-65
2023/03/01 07:15:03;;;;;;;21.63;14.40;;;;;;;;;;5070527;28;20398;-67
2023/03/01 07:17:29;;;;;;;20.88;13.05;;;;;;;;;;5069040;28;20056;-66
2023/03/01 07:19:55;;;;;;;20.77;14.05;;;;;;;;;;5068270;28;20056;-65
2023/03/01 07:22:21;;;;;;;22.95;14.57;;;;;;;;;;5077615;28;20390;-66
2023/03/01 07:24:47;;;;;;;21.08;13.77;;;;;;;;;;5069892;28;20140;-67
2023/03/01 07:27:13;;;;;;;23.85;15.50;;;;;;;;;;5072538;28;20050;-64
2023/03/01 07:29:39;;;;;;;19.92;13.77;;;;;;;;;;5073496;28;20558;-65
2023/03/01 07:32:06;;;;;;;21.05;14.25;;;;;;;;;;5077704;28;20055;-65
2023/03/01 07:34:33;;;;;;;22.15;14.27;;;;;;;;;;5068095;28;20032;-65
2023/03/01 07:36:59;;;;;;;21.70;14.38;;;;;;;;;;5072547;28;20052;-65
2023/03/01 07:39:25;;;;;;;23.83;15.05;;;;;;;;;;5073766;28;20100;-66
2023/03/01 07:41:51;;;;;;;24.67;16.52;;;;;;;;;;5070877;28;20060;-66
2023/03/01 07:44:17;;;;;;;24.52;15.75;;;;;;;;;;5072133;28;20071;-67
2023/03/01 07:46:44;;;;;;;24.13;15.98;;;;;;;;;;5078444;28;20837;-66
2023/03/01 07:49:10;;;;;;;22.85;13.85;;;;;;;;;;5066515;28;20498;-66
2023/03/01 07:51:36;;;;;;;29.70;16.83;;;;;;;;;;5074874;28;20039;-66
2023/03/01 07:54:02;;;;;;;26.48;16.05;;;;;;;;;;5068524;28;20036;-67
2023/03/01 07:56:28;;;;;;;25.38;16.02;;;;;;;;;;5076669;28;20809;-66
2023/03/01 07:58:54;;;;;;;27.20;17.75;;;;;;;;;;5077222;28;20106;-66
2023/03/01 08:01:21;;;;;;;24.40;15.65;;;;;;;;;;5069122;28;20486;-67
2023/03/01 08:03:47;;;;;;;24.75;15.75;;;;;;;;;;5071361;28;20603;-66
2023/03/01 08:06:14;;;;;;;24.92;15.73;;;;;;;;;;5072775;28;20112;-66
2023/03/01 08:08:41;;;;;;;22.67;14.32;;;;;;;;;;5070537;28;20037;-66
2023/03/01 08:11:07;;;;;;;21.35;14.10;;;;;;;;;;5068837;28;20086;-66
2023/03/01 08:13:34;;;;;;;21.80;15.00;;;;;;;;;;5073931;28;20841;-65
2023/03/01 08:16:11;;;;;;;20.63;13.52;;;5.50;99.90;;;;;;5072253;28;20072;-65
2023/03/01 08:18:37;;;;;;;17.83;13.15;;;;;;;;;;5086846;28;20094;-67
2023/03/01 08:21:04;;;;;;;18.98;13.85;;;;;;;;;;5070490;28;20048;-68
2023/03/01 08:23:30;;;;;;;20.55;14.20;;;6.70;99.90;;;;;;5080949;28;20036;-70
2023/03/01 08:26:04;;;;;;;19.33;14.77;;;;;;;;;;5075930;28;20044;-66
2023/03/01 08:28:30;;;;;;;18.17;13.38;;;;;;;;;;5072455;28;20481;-70
2023/03/01 08:30:55;;;;;;;18.40;14.05;;;;;;;;;;5067481;28;20048;-66
2023/03/01 08:33:21;;;;;;;16.95;13.30;;;;;;;;;;5080663;28;20043;-70
2023/03/01 08:35:47;;;;;;;18.25;14.15;;;;;;;;;;5066946;28;20051;-69
2023/03/01 08:38:13;;;;;;;18.25;13.98;;;;;;;;;;5078316;28;20083;-69
2023/03/01 08:40:39;;;;;;;22.00;14.30;;;;;;;;;;5062619;28;20092;-70
2023/03/01 08:43:05;;;;;;;21.67;15.25;;;;;;;;;;5066677;28;20063;-66
2023/03/01 08:45:31;;;;;;;22.23;16.23;;;10.00;99.90;;;;;;5066626;28;20062;-66
2023/03/01 08:47:57;;;;;;;20.65;15.20;;;;;;;;;;5069661;28;20036;-66
2023/03/01 08:50:24;;;;;;;19.45;14.48;;;;;;;;;;5067818;28;20069;-67
2023/03/01 08:52:50;;;;;;;18.15;13.88;;;13.10;99.90;;;;;;5067690;28;20036;-66
2023/03/01 08:55:17;;;;;;;19.95;15.27;;;14.20;99.90;;;;;;5072729;28;20054;-66
2023/03/01 08:57:43;;;;;;;18.73;14.48;;;;;;;;;;5065977;28;20044;-65
2023/03/01 09:00:11;;;;;;;21.50;15.50;;;15.40;99.90;;;;;;5066535;28;20119;-67
2023/03/01 09:02:37;;;;;;;20.80;14.57;;;15.80;99.90;;;;;;5074685;28;20029;-66
2023/03/01 09:05:03;;;;;;;18.08;13.68;;;15.30;99.90;;;;;;5063675;28;20044;-66
2023/03/01 09:07:29;;;;;;;20.95;15.02;;;;;;;;;;5063024;28;20109;-67
2023/03/01 09:09:55;;;;;;;20.00;14.27;;;;;;;;;;5061457;28;20036;-67
2023/03/01 09:12:21;;;;;;;17.05;13.65;;;;;;;;;;5070704;28;20051;-66
2023/03/01 09:14:47;;;;;;;23.45;15.23;;;15.90;99.90;;;;;;5067164;28;20051;-66
2023/03/01 09:17:13;;;;;;;20.13;14.95;;;;;;;;;;5068242;28;20043;-67
2023/03/01 09:19:38;;;;;;;19.85;14.52;;;;;;;;;;5068695;28;20043;-66
2023/03/01 09:22:04;;;;;;;20.40;15.32;;;15.50;99.90;;;;;;5065253;28;20036;-66
2023/03/01 09:24:30;;;;;;;22.55;16.08;;;;;;;;;;5064274;28;20156;-67
2023/03/01 09:26:57;;;;;;;19.73;14.25;;;;;;;;;;5065991;28;20041;-66
2023/03/01 09:29:23;;;;;;;19.33;15.40;;;14.60;99.90;;;;;;5065479;28;20494;-66
2023/03/01 09:31:49;;;;;;;19.52;14.77;;;;;;;;;;5066448;28;20465;-66
2023/03/01 09:34:19;;;;;;;20.77;15.60;;;;;;;;;;5072310;28;20036;-67
2023/03/01 09:36:45;;;;;;;21.10;14.77;;;;;;;;;;5070158;28;20049;-67
2023/03/01 09:39:11;;;;;;;19.60;14.48;;;;;;;;;;5073575;28;20153;-66
2023/03/01 09:41:37;;;;;;;22.90;16.00;;;16.30;99.90;;;;;;5070713;28;20493;-66
2023/03/01 09:44:11;;;;;;;22.77;15.63;;;16.60;99.90;;;;;;5072873;28;20522;-66
2023/03/01 09:46:43;;;;;;;22.57;15.33;;;16.80;99.90;;;;;;5072195;28;20512;-66
2023/03/01 09:49:25;;;;;;;27.23;15.65;;;16.70;99.90;;;;;;5064729;28;20127;-67
2023/03/01 09:52:12;;;;;;;19.85;14.85;;;16.80;99.90;;;;;;5069344;28;20041;-67
2023/03/01 09:54:38;;;;;;;22.00;15.50;;;;;;;;;;5077870;28;20048;-66
2023/03/01 09:57:25;;;;;;;24.08;15.55;;;17.50;99.90;;;;;;5078713;28;20386;-66
2023/03/01 10:00:19;;;;;;;20.45;15.30;;;18.00;99.90;;;;;;5065776;28;20482;-67
2023/03/01 10:03:05;;;;;;;20.50;14.82;;;18.50;99.90;;;;;;5083520;28;20047;-67
2023/03/01 10:05:50;;;;;;;21.10;15.98;;;19.10;99.90;;;;;;5069461;28;20045;-66
2023/03/01 10:08:55;;;;;;;18.08;13.82;;;20.50;99.40;;;;;;5063533;28;20055;-67
2023/03/01 10:11:30;;;;;;;21.33;14.57;;;20.30;99.20;;;;;;5067265;28;20143;-67
2023/03/01 10:14:02;;;;;;;17.50;13.70;;;21.00;98.20;;;;;;5076784;28;20325;-68
2023/03/01 10:16:50;;;;;;;16.40;12.93;;;20.30;97.20;;;;;;5085236;28;20036;-66
2023/03/01 10:19:23;;;;;;;20.70;13.38;;;19.80;97.30;;;;;;5071886;28;20040;-67
2023/03/01 10:21:51;;;;;;;21.48;12.30;;;20.30;97.70;;;;;;5070797;28;20094;-67
2023/03/01 10:24:21;;;;;;;18.67;12.57;;;20.00;97.10;;;;;;5083838;28;20059;-68
2023/03/01 10:27:05;;;;;;;16.85;12.57;;;21.10;95.10;;;;;;5071304;28;20044;-67
2023/03/01 10:29:48;;;;;;;16.25;12.13;;;21.30;95.00;;;;;;5078355;28;20050;-68
2023/03/01 10:32:14;;;;;;;15.00;12.60;;;20.50;93.50;;;;;;5077744;28;20044;-66
2023/03/01 10:34:41;;;;;;;15.02;11.63;;;20.50;95.00;;;;;;5067615;28;20044;-66
2023/03/01 10:37:11;;;;;;;18.13;12.15;;;20.00;94.30;;;;;;5069341;28;20044;-67
2023/03/01 10:39:53;;;;;;;16.63;11.80;;;20.40;94.80;;;;;;5068690;28;20559;-68
2023/03/01 10:42:26;;;;;;;14.70;11.10;;;18.70;95.10;;;;;;5058910;28;20049;-66
2023/03/01 10:44:51;;;;;;;12.38;10.48;;;18.20;95.20;;;;;;5076002;28;20458;-67
2023/03/01 10:47:26;;;;;;;14.20;10.55;;;17.70;95.70;;;;;;5064349;28;20135;-67
2023/03/01 10:49:51;;;;;;;;;;;16.70;96.00;;;;;;5063123;28;20427;-67
2023/03/01 10:52:20;;;;;;;11.30;10.00;;;15.60;95.90;;;;;;5068185;28;19943;-68
2023/03/01 10:55:01;;;;;;;14.80;10.05;;;14.40;98.70;;;;;;5066833;28;20489;-67
2023/03/01 10:57:36;;;;;;;14.07;11.18;;;14.70;97.80;;;;;;5068040;28;20041;-68
2023/03/01 11:00:22;;;;;;;16.52;11.35;;;13.40;99.90;;;;;;5067865;28;20923;-66
2023/03/01 11:03:12;;;;;;;13.55;10.82;;;14.00;99.00;;;;;;5069296;28;20072;-66
2023/03/01 11:06:16;;;;;;;14.95;11.18;;;13.60;99.90;;;;;;5058774;28;20461;-67
2023/03/01 11:08:47;;;;;;;15.88;11.80;;;13.90;98.90;;;;;;5062790;28;20414;-68
2023/03/01 11:11:23;;;;;;;14.43;10.77;;;13.60;99.20;;;;;;5070123;28;20402;-67
2023/03/01 11:14:17;;;;;;;19.17;11.93;;;13.20;99.90;;;;;;5066342;28;20051;-66
2023/03/01 11:16:48;;;;;;;16.85;11.52;;;12.20;99.90;;;;;;5070496;28;20072;-67
2023/03/01 11:19:19;;;;;;;18.08;11.18;;;11.70;99.90;;;;;;5068131;28;20048;-66
2023/03/01 11:22:01;;;;;;;16.17;12.30;;;11.30;99.90;;;;;;5072893;28;20112;-69
2023/03/01 11:24:46;;;;;;;15.75;12.93;;;11.50;99.90;;;;;;5065377;28;20102;-72
2023/03/01 11:27:34;;;;;;;14.98;10.82;;;11.20;99.90;;;;;;5068921;28;20044;-74
2023/03/01 11:30:12;;;;;;;18.85;11.45;;;11.00;99.90;;;;;;5062991;28;20056;-65
2023/03/01 11:32:43;;;;;;;18.55;12.30;;;;;;;;;;5066016;28;20805;-65
2023/03/01 11:35:23;;;;;;;15.82;12.35;;;10.10;99.90;;;;;;5067160;28;20106;-65
2023/03/01 11:38:01;;;;;;;15.50;11.20;;;10.30;99.90;;;;;;5069630;28;20044;-65
2023/03/01 11:40:34;;;;;;;16.98;11.15;;;;;;;;;;5066176;28;20127;-65
2023/03/01 11:43:09;;;;;;;17.92;11.65;;;9.90;99.90;;;;;;5081706;28;20059;-65
2023/03/01 11:45:58;;;;;;;18.50;12.48;;;;;;;;;;5059371;28;20459;-65
2023/03/01 11:48:30;;;;;;;17.95;12.18;;;;;;;;;;5063369;28;20064;-67
2023/03/01 11:50:59;;;;;;;19.55;12.40;;;;;;;;;;5070422;28;20127;-70
2023/03/01 11:53:50;;;;;;;19.65;12.88;;;10.10;99.90;;;;;;5065810;28;20041;-69
2023/03/01 11:56:24;;;;;;;19.33;12.70;;;11.00;99.90;;;;;;5078973;28;20028;-68
2023/03/01 11:59:16;;;;;;;19.48;12.13;;;11.00;99.90;;;;;;5074839;28;20051;-68
2023/03/01 12:01:54;;;;;;;18.20;12.48;;;11.60;99.90;;;;;;5071260;28;20036;-68
2023/03/01 12:04:44;;;;;;;18.35;12.63;;;13.00;99.90;;;;;;5055063;28;20123;-68
2023/03/01 12:07:14;;;;;;;17.83;12.20;;;14.10;99.90;;;;;;5069645;28;20116;-67
2023/03/01 12:10:15;;;;;;;18.08;12.75;;;12.80;99.90;;;;;;5062844;28;20043;-68
2023/03/01 12:12:59;;;;;;;18.30;13.48;;;12.50;99.90;;;;;;5069422;28;20089;-67
2023/03/01 12:15:40;;;;;;;14.90;10.60;;;;;;;;;;5070756;28;20037;-68
2023/03/01 12:18:17;;;;;;;17.50;11.98;;;;;;;;;;5069583;28;20040;-68
2023/03/01 12:20:52;;;;;;;14.13;9.65;;;;;;;;;;5066444;28;20166;-65
2023/03/01 12:23:18;;;;;;;;;;;;;;;;;;5068233;28;20044;-65
2023/03/01 12:25:59;;;;;;;17.63;11.15;;;;;;;;;;5065566;28;20503;-68
2023/03/01 12:28:31;;;;;;;17.00;12.27;;;;;;;;;;5074365;28;20047;-68
2023/03/01 12:31:28;;;;;;;16.20;11.68;;;;;;;;;;5064192;28;20071;-68
2023/03/01 12:34:00;;;;;;;17.80;12.00;;;;;;;;;;5076526;28;20048;-69
2023/03/01 12:36:50;;;;;;;19.33;12.98;;;;;;;;;;5070276;28;20036;-71
2023/03/01 12:39:24;;;;;;;16.13;12.00;;;;;;;;;;5064247;28;20051;-67
2023/03/01 12:41:53;;;;;;;18.23;11.60;;;;;;;;;;5066862;28;20410;-65
2023/03/01 12:44:41;;;;;;;17.15;12.00;;;9.40;99.90;;;;;;5067933;28;20048;-67
2023/03/01 12:47:16;;;;;;;19.08;11.50;;;;;;;;;;5086382;28;20052;-67
2023/03/01 12:49:42;;;;;;;;;;;;;;;;;;5069669;28;20055;-67
2023/03/01 12:52:09;;;;;;;15.13;11.10;;;;;;;;;;5069980;28;19920;-67
2023/03/01 12:54:36;;;;;;;16.63;11.38;;;;;;;;;;5068034;28;20053;-68
2023/03/01 12:57:18;;;;;;;16.48;11.40;;;;;;;;;;5066426;28;20032;-72
2023/03/01 13:00:09;;;;;;;16.98;11.88;;;;;;;;;;5066775;28;20352;-71
2023/03/01 13:02:44;;;;;;;18.45;12.15;;;;;;;;;;5069248;28;20050;-73
2023/03/01 13:05:19;;;;;;;17.52;10.85;;;;;;;;;;5067848;28;20064;-72
2023/03/01 13:07:57;;;;;;;18.27;13.05;;;;;;;;;;5065213;28;20083;-74
2023/03/01 13:10:32;;;;;;;17.92;11.07;;;;;;;;;;5061238;28;20043;-70
2023/03/01 13:12:58;;;;;;;16.65;12.30;;;;;;;;;;5065039;28;20048;-68
2023/03/01 13:15:24;;;;;;;16.33;11.35;;;;;;;;;;5077101;28;20145;-69
2023/03/01 13:17:52;;;;;;;19.83;12.52;;;;;;;;;;5074478;28;20154;-66
2023/03/01 13:20:19;;;;;;;14.68;10.75;;;;;;;;;;5065826;28;20048;-66
2023/03/01 13:22:47;;;;;;;18.45;12.55;;;8.90;99.90;;;;;;5067808;28;20118;-65
2023/03/01 13:25:15;;;;;;;20.88;12.32;;;;;;;;;;5074760;28;20028;-66
2023/03/01 13:27:41;;;;;;;15.75;11.68;;;8.80;99.90;;;;;;5071828;28;20044;-66
2023/03/01 13:30:27;;;;;;;18.77;12.57;;;;;;;;;;5065946;28;20519;-66
2023/03/01 13:33:13;;;;;;;21.70;12.25;;;;;;;;;;5072669;28;20053;-65
2023/03/01 13:35:43;;;;;;;16.55;11.45;;;;;;;;;;5072146;28;20055;-65
2023/03/01 13:38:28;;;;;;;17.85;12.48;;;;;;;;;;5069894;28;20045;-65
2023/03/01 13:40:54;;;;;;;15.32;10.95;;;;;;;;;;5070199;28;20516;-65
2023/03/01 13:43:28;;;;;;;15.48;11.27;;;;;;;;;;5069756;28;20052;-65
2023/03/01 13:45:54;;;;;;;18.48;12.30;;;;;;;;;;5068850;28;20051;-65
2023/03/01 13:48:31;;;;;;;19.08;12.40;;;;;;;;;;5066243;28;20047;-65
2023/03/01 13:51:01;;;;;;;18.08;12.88;;;;;;;;;;5064673;28;20130;-65
2023/03/01 13:53:31;;;;;;;19.20;12.55;;;;;;;;;;5064178;28;20048;-65
2023/03/01 13:56:01;;;;;;;19.08;12.20;;;;;;;;;;5078415;28;20043;-66
2023/03/01 13:58:30;;;;;;;20.67;11.30;;;9.00;99.90;;;;;;5070432;28;20041;-70
2023/03/01 14:00:57;;;;;;;15.20;11.80;;;8.50;99.90;;;;;;5071058;28;20444;-66
2023/03/01 14:03:23;;;;;;;17.52;12.73;;;;;;;;;;5068662;28;20876;-64
2023/03/01 14:05:58;;;;;;;20.50;13.02;;;;;;;;;;5070137;28;20039;-65
2023/03/01 14:08:26;;;;;;;16.27;10.20;;;8.50;99.90;;;;;;5069219;28;20044;-65
2023/03/01 14:11:01;;;;;;;18.70;12.00;;;;;;;;;;5072100;28;20093;-66